createdAt,value
2022-08-05T00:27:10.198Z,98
2022-08-05T00:57:06.920Z,98
2022-08-05T01:07:07.493Z,100
2022-08-05T01:17:07.730Z,100
2022-08-05T01:27:17.573Z,100
2022-08-05T01:37:09.738Z,100
2022-08-05T01:47:10.108Z,100
2022-08-05T01:58:18.817Z,100
2022-08-05T02:07:11.384Z,100
2022-08-05T02:17:16.937Z,100
2022-08-05T02:27:13.078Z,100
2022-08-05T02:37:13.181Z,100
2022-08-05T02:47:14.088Z,100
2022-08-05T03:07:21.490Z,100
2022-08-05T03:17:16.001Z,100
2022-08-05T03:27:16.989Z,100
2022-08-05T03:37:17.181Z,100
2022-08-05T03:47:18.206Z,100
2022-08-05T03:57:18.418Z,100
2022-08-05T04:07:18.709Z,100
2022-08-05T04:17:19.282Z,100
2022-08-05T04:27:19.271Z,100
2022-08-05T04:37:19.444Z,100
2022-08-05T04:47:20.582Z,100
2022-08-05T04:57:20.680Z,100
2022-08-05T05:07:24.038Z,100
2022-08-05T05:17:24.431Z,100
2022-08-05T05:27:23.389Z,100
2022-08-05T05:37:23.464Z,100
2022-08-05T05:47:23.518Z,100
2022-08-05T05:57:24.773Z,100
2022-08-05T06:07:25.049Z,100
2022-08-05T06:17:30.807Z,100
2022-08-05T06:28:09.706Z,100
2022-08-05T06:37:52.361Z,100
2022-08-05T06:47:30.211Z,100
2022-08-05T06:57:58.470Z,100
2022-08-05T07:07:35.664Z,100
2022-08-05T07:17:57.818Z,100
2022-08-05T07:27:56.911Z,100
2022-08-05T07:37:36.134Z,100
2022-08-05T07:47:30.455Z,100
2022-08-05T08:07:39.379Z,100
2022-08-05T08:17:32.004Z,100
2022-08-05T08:27:40.323Z,100
2022-08-05T08:37:33.085Z,100
2022-08-05T08:47:47.972Z,100
2022-08-05T08:57:42.168Z,100
2022-08-05T09:17:40.312Z,100
2022-08-05T09:28:03.525Z,100
2022-08-05T09:38:11.751Z,100
2022-08-05T09:47:48.992Z,100
2022-08-05T09:57:39.491Z,100
2022-08-05T10:07:59.415Z,99
2022-08-05T10:17:39.989Z,98
2022-08-05T10:28:10.034Z,96
2022-08-05T10:37:40.524Z,96
2022-08-05T10:47:40.424Z,91
2022-08-05T10:57:41.434Z,89
2022-08-05T11:08:01.498Z,85
2022-08-05T11:38:27.408Z,81
2022-08-05T11:47:49.207Z,81
2022-08-05T11:58:08.943Z,78
2022-08-05T12:08:03.983Z,79
2022-08-05T12:18:03.528Z,81
2022-08-05T12:27:52.821Z,78
2022-08-05T12:37:47.955Z,79
2022-08-05T12:48:01.923Z,74
2022-08-05T12:58:39.746Z,70
2022-08-05T13:07:57.870Z,71
2022-08-05T13:27:50.872Z,75
2022-08-05T13:37:55.441Z,73
2022-08-05T13:48:09.067Z,66
2022-08-05T13:57:52.474Z,67
2022-08-05T14:07:56.656Z,65
2022-08-05T14:17:54.997Z,47
2022-08-05T14:27:54.546Z,47
2022-08-05T14:37:55.713Z,45
2022-08-05T14:57:56.815Z,47
2022-08-05T15:08:06.763Z,46
2022-08-05T15:17:58.147Z,47
2022-08-05T15:27:58.912Z,44
2022-08-05T15:38:08.921Z,44
2022-08-05T15:47:59.849Z,45
2022-08-05T15:58:00.686Z,47
2022-08-05T16:08:01.203Z,47
2022-08-05T16:18:04.170Z,45
2022-08-05T16:28:05.037Z,45
2022-08-05T16:48:03.657Z,46
2022-08-05T17:08:05.228Z,48
2022-08-05T17:28:05.812Z,48
2022-08-05T17:38:06.375Z,48
2022-08-05T17:58:07.226Z,51
2022-08-05T18:08:07.693Z,51
2022-08-05T18:18:11.258Z,53
2022-08-05T18:28:09.254Z,55
2022-08-05T18:38:09.348Z,57
2022-08-05T18:48:10.962Z,58
2022-08-05T18:58:16.316Z,60
2022-08-05T19:08:12.151Z,62
2022-08-05T19:18:13.403Z,64
2022-08-05T19:28:12.199Z,65
2022-08-05T19:38:12.514Z,67
2022-08-05T19:48:14.200Z,67
2022-08-05T19:58:24.652Z,69
2022-08-05T20:08:15.135Z,71
2022-08-05T20:18:32.462Z,71
2022-08-05T20:28:17.110Z,72
2022-08-05T20:38:20.315Z,72
2022-08-05T20:48:18.598Z,74
2022-08-05T20:58:19.647Z,74
2022-08-05T21:18:20.762Z,75
2022-08-05T21:28:23.717Z,75
2022-08-05T21:38:21.463Z,76
2022-08-05T21:48:22.457Z,77
2022-08-05T21:58:25.009Z,78
2022-08-05T22:28:23.771Z,81
2022-08-05T22:38:24.193Z,82
2022-08-05T22:48:27.275Z,82
2022-08-05T22:58:28.384Z,83
2022-08-05T23:08:25.470Z,84
2022-08-05T23:18:26.347Z,85
2022-08-05T23:28:28.575Z,86
2022-08-05T23:38:26.935Z,87
2022-08-05T23:48:27.457Z,87
2022-08-05T23:58:31.558Z,88
